sensor_id;sensor_type;location;lat;lon;timestamp;P1;durP1;ratioP1;P2;durP2;ratioP2
44116;SDS011;29781;49.480;8.512;2023-12-20T00:00:13;8.07;;;6.07;;
44116;SDS011;29781;49.480;8.512;2023-12-20T00:02:39;9.30;;;6.05;;
44116;SDS011;29781;49.480;8.512;2023-12-20T00:05:04;9.02;;;6.45;;
44116;SDS011;29781;49.480;8.512;2023-12-20T00:07:31;9.70;;;6.03;;
44116;SDS011;29781;49.480;8.512;2023-12-20T00:09:56;9.80;;;5.97;;
44116;SDS011;29781;49.480;8.512;2023-12-20T00:12:22;9.02;;;6.70;;
44116;SDS011;29781;49.480;8.512;2023-12-20T00:14:47;8.13;;;5.88;;
44116;SDS011;29781;49.480;8.512;2023-12-20T00:17:13;10.82;;;5.97;;
44116;SDS011;29781;49.480;8.512;2023-12-20T00:19:38;7.10;;;5.80;;
44116;SDS011;29781;49.480;8.512;2023-12-20T00:22:04;6.80;;;5.35;;
44116;SDS011;29781;49.480;8.512;2023-12-20T00:24:29;6.32;;;4.93;;
44116;SDS011;29781;49.480;8.512;2023-12-20T00:26:55;8.27;;;5.63;;
44116;SDS011;29781;49.480;8.512;2023-12-20T00:29:20;7.07;;;5.30;;
44116;SDS011;29781;49.480;8.512;2023-12-20T00:31:46;5.40;;;4.78;;
44116;SDS011;29781;49.480;8.512;2023-12-20T00:34:11;8.55;;;5.15;;
44116;SDS011;29781;49.480;8.512;2023-12-20T00:36:37;7.57;;;5.55;;
44116;SDS011;29781;49.480;8.512;2023-12-20T00:39:02;6.03;;;4.55;;
44116;SDS011;29781;49.480;8.512;2023-12-20T00:41:28;5.07;;;4.20;;
44116;SDS011;29781;49.480;8.512;2023-12-20T00:43:53;6.68;;;4.65;;
44116;SDS011;29781;49.480;8.512;2023-12-20T00:46:19;5.82;;;4.30;;
44116;SDS011;29781;49.480;8.512;2023-12-20T00:48:44;8.50;;;4.20;;
44116;SDS011;29781;49.480;8.512;2023-12-20T00:51:10;6.20;;;4.35;;
44116;SDS011;29781;49.480;8.512;2023-12-20T00:53:36;5.28;;;3.95;;
44116;SDS011;29781;49.480;8.512;2023-12-20T00:56:01;5.40;;;3.90;;
44116;SDS011;29781;49.480;8.512;2023-12-20T00:58:27;3.95;;;3.55;;
44116;SDS011;29781;49.480;8.512;2023-12-20T01:00:53;4.95;;;3.80;;
44116;SDS011;29781;49.480;8.512;2023-12-20T01:03:18;5.57;;;3.80;;
44116;SDS011;29781;49.480;8.512;2023-12-20T01:05:44;5.20;;;3.72;;
44116;SDS011;29781;49.480;8.512;2023-12-20T01:08:09;4.43;;;3.70;;
44116;SDS011;29781;49.480;8.512;2023-12-20T01:10:35;4.22;;;3.70;;
44116;SDS011;29781;49.480;8.512;2023-12-20T01:13:00;4.68;;;3.58;;
44116;SDS011;29781;49.480;8.512;2023-12-20T01:15:26;4.47;;;3.95;;
44116;SDS011;29781;49.480;8.512;2023-12-20T01:17:51;5.03;;;4.07;;
44116;SDS011;29781;49.480;8.512;2023-12-20T01:20:17;6.90;;;3.90;;
44116;SDS011;29781;49.480;8.512;2023-12-20T01:22:44;4.50;;;3.45;;
44116;SDS011;29781;49.480;8.512;2023-12-20T01:25:10;5.25;;;3.88;;
44116;SDS011;29781;49.480;8.512;2023-12-20T01:27:36;4.38;;;3.70;;
44116;SDS011;29781;49.480;8.512;2023-12-20T01:30:02;4.90;;;3.85;;
44116;SDS011;29781;49.480;8.512;2023-12-20T01:32:28;4.55;;;3.35;;
44116;SDS011;29781;49.480;8.512;2023-12-20T01:34:53;5.25;;;3.50;;
44116;SDS011;29781;49.480;8.512;2023-12-20T01:37:19;4.30;;;3.40;;
44116;SDS011;29781;49.480;8.512;2023-12-20T01:39:44;4.10;;;3.35;;
44116;SDS011;29781;49.480;8.512;2023-12-20T01:42:10;3.40;;;3.10;;
44116;SDS011;29781;49.480;8.512;2023-12-20T01:44:35;3.72;;;2.97;;
44116;SDS011;29781;49.480;8.512;2023-12-20T01:47:01;3.85;;;2.92;;
44116;SDS011;29781;49.480;8.512;2023-12-20T01:49:26;4.15;;;3.30;;
44116;SDS011;29781;49.480;8.512;2023-12-20T01:51:52;3.92;;;3.08;;
44116;SDS011;29781;49.480;8.512;2023-12-20T01:54:18;4.10;;;3.10;;
44116;SDS011;29781;49.480;8.512;2023-12-20T01:56:45;4.15;;;3.30;;
44116;SDS011;29781;49.480;8.512;2023-12-20T01:59:11;6.65;;;3.28;;
44116;SDS011;29781;49.480;8.512;2023-12-20T02:01:37;3.53;;;2.58;;
44116;SDS011;29781;49.480;8.512;2023-12-20T02:04:03;4.03;;;2.97;;
44116;SDS011;29781;49.480;8.512;2023-12-20T02:06:29;3.67;;;3.10;;
44116;SDS011;29781;49.480;8.512;2023-12-20T02:08:58;3.60;;;3.10;;
44116;SDS011;29781;49.480;8.512;2023-12-20T02:11:24;2.97;;;2.55;;
44116;SDS011;29781;49.480;8.512;2023-12-20T02:13:51;3.70;;;2.70;;
44116;SDS011;29781;49.480;8.512;2023-12-20T02:16:16;3.10;;;2.65;;
44116;SDS011;29781;49.480;8.512;2023-12-20T02:18:42;2.55;;;2.25;;
44116;SDS011;29781;49.480;8.512;2023-12-20T02:21:09;3.22;;;2.58;;
44116;SDS011;29781;49.480;8.512;2023-12-20T02:23:35;3.58;;;2.70;;
44116;SDS011;29781;49.480;8.512;2023-12-20T02:26:01;4.35;;;2.63;;
44116;SDS011;29781;49.480;8.512;2023-12-20T02:28:28;6.45;;;2.95;;
44116;SDS011;29781;49.480;8.512;2023-12-20T02:30:54;3.20;;;2.65;;
44116;SDS011;29781;49.480;8.512;2023-12-20T02:33:19;3.45;;;3.10;;
44116;SDS011;29781;49.480;8.512;2023-12-20T02:35:44;4.47;;;3.22;;
44116;SDS011;29781;49.480;8.512;2023-12-20T02:38:10;3.67;;;2.80;;
44116;SDS011;29781;49.480;8.512;2023-12-20T02:40:36;3.58;;;3.13;;
44116;SDS011;29781;49.480;8.512;2023-12-20T02:43:01;4.30;;;2.75;;
44116;SDS011;29781;49.480;8.512;2023-12-20T02:45:27;4.82;;;3.17;;
44116;SDS011;29781;49.480;8.512;2023-12-20T02:47:53;4.65;;;3.30;;
44116;SDS011;29781;49.480;8.512;2023-12-20T02:50:18;5.25;;;3.42;;
44116;SDS011;29781;49.480;8.512;2023-12-20T02:52:47;3.53;;;3.00;;
44116;SDS011;29781;49.480;8.512;2023-12-20T02:55:12;3.60;;;2.90;;
44116;SDS011;29781;49.480;8.512;2023-12-20T02:57:38;5.72;;;3.72;;
44116;SDS011;29781;49.480;8.512;2023-12-20T03:00:07;4.00;;;3.20;;
44116;SDS011;29781;49.480;8.512;2023-12-20T03:02:34;3.28;;;2.80;;
44116;SDS011;29781;49.480;8.512;2023-12-20T03:04:59;5.05;;;3.47;;
44116;SDS011;29781;49.480;8.512;2023-12-20T03:07:25;4.07;;;3.20;;
44116;SDS011;29781;49.480;8.512;2023-12-20T03:09:50;6.47;;;3.28;;
44116;SDS011;29781;49.480;8.512;2023-12-20T03:12:16;3.22;;;2.88;;
44116;SDS011;29781;49.480;8.512;2023-12-20T03:14:41;4.47;;;3.67;;
44116;SDS011;29781;49.480;8.512;2023-12-20T03:17:08;4.85;;;3.78;;
44116;SDS011;29781;49.480;8.512;2023-12-20T03:19:34;4.35;;;3.38;;
44116;SDS011;29781;49.480;8.512;2023-12-20T03:21:59;6.13;;;3.75;;
44116;SDS011;29781;49.480;8.512;2023-12-20T03:24:26;3.63;;;3.10;;
44116;SDS011;29781;49.480;8.512;2023-12-20T03:26:51;4.03;;;3.00;;
44116;SDS011;29781;49.480;8.512;2023-12-20T03:29:17;4.93;;;3.58;;
44116;SDS011;29781;49.480;8.512;2023-12-20T03:31:42;3.20;;;2.90;;
44116;SDS011;29781;49.480;8.512;2023-12-20T03:34:08;3.15;;;2.83;;
44116;SDS011;29781;49.480;8.512;2023-12-20T03:36:33;4.00;;;2.97;;
44116;SDS011;29781;49.480;8.512;2023-12-20T03:38:59;5.30;;;3.05;;
44116;SDS011;29781;49.480;8.512;2023-12-20T03:41:24;4.75;;;3.63;;
44116;SDS011;29781;49.480;8.512;2023-12-20T03:43:50;4.30;;;2.95;;
44116;SDS011;29781;49.480;8.512;2023-12-20T03:46:15;4.00;;;3.22;;
44116;SDS011;29781;49.480;8.512;2023-12-20T03:48:41;4.10;;;3.28;;
44116;SDS011;29781;49.480;8.512;2023-12-20T03:51:06;4.20;;;3.25;;
44116;SDS011;29781;49.480;8.512;2023-12-20T03:53:32;4.45;;;3.00;;
44116;SDS011;29781;49.480;8.512;2023-12-20T03:55:57;3.83;;;3.13;;
44116;SDS011;29781;49.480;8.512;2023-12-20T03:58:24;2.72;;;2.53;;
44116;SDS011;29781;49.480;8.512;2023-12-20T04:00:49;3.05;;;2.65;;
44116;SDS011;29781;49.480;8.512;2023-12-20T04:03:15;3.38;;;2.80;;
44116;SDS011;29781;49.480;8.512;2023-12-20T04:05:40;5.15;;;2.80;;
44116;SDS011;29781;49.480;8.512;2023-12-20T04:08:07;3.25;;;2.92;;
44116;SDS011;29781;49.480;8.512;2023-12-20T04:10:32;3.83;;;3.10;;
44116;SDS011;29781;49.480;8.512;2023-12-20T04:12:58;2.72;;;2.42;;
44116;SDS011;29781;49.480;8.512;2023-12-20T04:15:23;2.80;;;2.53;;
44116;SDS011;29781;49.480;8.512;2023-12-20T04:17:49;3.45;;;2.50;;
44116;SDS011;29781;49.480;8.512;2023-12-20T04:20:14;2.88;;;2.45;;
44116;SDS011;29781;49.480;8.512;2023-12-20T04:22:40;3.13;;;2.30;;
44116;SDS011;29781;49.480;8.512;2023-12-20T04:25:05;3.08;;;2.65;;
44116;SDS011;29781;49.480;8.512;2023-12-20T04:27:31;2.60;;;2.40;;
44116;SDS011;29781;49.480;8.512;2023-12-20T04:29:56;2.97;;;2.67;;
44116;SDS011;29781;49.480;8.512;2023-12-20T04:32:22;2.65;;;2.45;;
44116;SDS011;29781;49.480;8.512;2023-12-20T04:34:47;3.03;;;2.45;;
44116;SDS011;29781;49.480;8.512;2023-12-20T04:37:13;2.50;;;2.30;;
44116;SDS011;29781;49.480;8.512;2023-12-20T04:39:38;3.30;;;2.20;;
44116;SDS011;29781;49.480;8.512;2023-12-20T04:42:05;2.63;;;2.38;;
44116;SDS011;29781;49.480;8.512;2023-12-20T04:44:31;2.15;;;1.98;;
44116;SDS011;29781;49.480;8.512;2023-12-20T04:46:56;2.38;;;1.75;;
44116;SDS011;29781;49.480;8.512;2023-12-20T04:49:22;2.30;;;2.10;;
44116;SDS011;29781;49.480;8.512;2023-12-20T04:51:47;2.95;;;1.88;;
44116;SDS011;29781;49.480;8.512;2023-12-20T04:54:14;3.17;;;2.60;;
44116;SDS011;29781;49.480;8.512;2023-12-20T04:56:39;4.53;;;2.42;;
44116;SDS011;29781;49.480;8.512;2023-12-20T04:59:05;4.95;;;2.20;;
44116;SDS011;29781;49.480;8.512;2023-12-20T05:01:30;2.40;;;1.98;;
44116;SDS011;29781;49.480;8.512;2023-12-20T05:03:56;2.00;;;1.90;;
44116;SDS011;29781;49.480;8.512;2023-12-20T05:06:21;2.45;;;1.95;;
44116;SDS011;29781;49.480;8.512;2023-12-20T05:08:47;2.30;;;2.00;;
44116;SDS011;29781;49.480;8.512;2023-12-20T05:11:12;2.50;;;2.00;;
44116;SDS011;29781;49.480;8.512;2023-12-20T05:13:40;2.17;;;2.00;;
44116;SDS011;29781;49.480;8.512;2023-12-20T05:16:05;2.08;;;1.88;;
44116;SDS011;29781;49.480;8.512;2023-12-20T05:18:31;2.30;;;1.85;;
44116;SDS011;29781;49.480;8.512;2023-12-20T05:20:56;2.28;;;1.90;;
44116;SDS011;29781;49.480;8.512;2023-12-20T05:23:22;2.35;;;1.80;;
44116;SDS011;29781;49.480;8.512;2023-12-20T05:25:48;1.80;;;1.70;;
44116;SDS011;29781;49.480;8.512;2023-12-20T05:28:14;1.85;;;1.75;;
44116;SDS011;29781;49.480;8.512;2023-12-20T05:30:40;1.70;;;1.60;;
44116;SDS011;29781;49.480;8.512;2023-12-20T05:33:05;2.00;;;1.80;;
44116;SDS011;29781;49.480;8.512;2023-12-20T05:35:31;2.08;;;1.90;;
44116;SDS011;29781;49.480;8.512;2023-12-20T05:37:56;2.30;;;2.03;;
44116;SDS011;29781;49.480;8.512;2023-12-20T05:40:22;2.30;;;2.10;;
44116;SDS011;29781;49.480;8.512;2023-12-20T05:42:47;3.55;;;2.13;;
44116;SDS011;29781;49.480;8.512;2023-12-20T05:45:14;2.80;;;2.60;;
44116;SDS011;29781;49.480;8.512;2023-12-20T05:47:39;4.13;;;2.63;;
44116;SDS011;29781;49.480;8.512;2023-12-20T05:50:05;2.45;;;2.25;;
44116;SDS011;29781;49.480;8.512;2023-12-20T05:52:31;2.65;;;2.45;;
44116;SDS011;29781;49.480;8.512;2023-12-20T05:54:56;2.60;;;2.40;;
44116;SDS011;29781;49.480;8.512;2023-12-20T05:57:26;4.20;;;2.92;;
44116;SDS011;29781;49.480;8.512;2023-12-20T05:59:51;3.30;;;2.90;;
44116;SDS011;29781;49.480;8.512;2023-12-20T06:02:17;3.13;;;2.83;;
44116;SDS011;29781;49.480;8.512;2023-12-20T06:04:42;4.10;;;3.22;;
44116;SDS011;29781;49.480;8.512;2023-12-20T06:07:11;4.07;;;2.92;;
44116;SDS011;29781;49.480;8.512;2023-12-20T06:09:37;3.30;;;3.00;;
44116;SDS011;29781;49.480;8.512;2023-12-20T06:12:03;3.65;;;3.10;;
44116;SDS011;29781;49.480;8.512;2023-12-20T06:14:28;2.95;;;2.75;;
44116;SDS011;29781;49.480;8.512;2023-12-20T06:16:55;4.13;;;3.72;;
44116;SDS011;29781;49.480;8.512;2023-12-20T06:19:21;3.88;;;3.47;;
44116;SDS011;29781;49.480;8.512;2023-12-20T06:21:47;4.57;;;3.40;;
44116;SDS011;29781;49.480;8.512;2023-12-20T06:24:12;6.22;;;4.28;;
44116;SDS011;29781;49.480;8.512;2023-12-20T06:26:38;5.30;;;3.65;;
44116;SDS011;29781;49.480;8.512;2023-12-20T06:29:03;4.03;;;3.63;;
44116;SDS011;29781;49.480;8.512;2023-12-20T06:31:29;3.85;;;3.45;;
44116;SDS011;29781;49.480;8.512;2023-12-20T06:33:54;6.78;;;3.83;;
44116;SDS011;29781;49.480;8.512;2023-12-20T06:36:22;4.95;;;3.65;;
44116;SDS011;29781;49.480;8.512;2023-12-20T06:38:49;7.32;;;2.92;;
44116;SDS011;29781;49.480;8.512;2023-12-20T06:41:15;7.05;;;4.03;;
44116;SDS011;29781;49.480;8.512;2023-12-20T06:43:41;7.32;;;3.47;;
44116;SDS011;29781;49.480;8.512;2023-12-20T06:46:07;4.40;;;3.60;;
44116;SDS011;29781;49.480;8.512;2023-12-20T06:48:32;3.75;;;3.35;;
44116;SDS011;29781;49.480;8.512;2023-12-20T06:50:59;4.75;;;3.90;;
44116;SDS011;29781;49.480;8.512;2023-12-20T06:53:27;6.53;;;4.15;;
44116;SDS011;29781;49.480;8.512;2023-12-20T06:55:52;5.18;;;3.90;;
44116;SDS011;29781;49.480;8.512;2023-12-20T06:58:18;7.97;;;5.15;;
44116;SDS011;29781;49.480;8.512;2023-12-20T07:00:43;6.32;;;4.20;;
44116;SDS011;29781;49.480;8.512;2023-12-20T07:03:09;5.35;;;3.88;;
44116;SDS011;29781;49.480;8.512;2023-12-20T07:05:35;5.68;;;4.80;;
44116;SDS011;29781;49.480;8.512;2023-12-20T07:08:00;7.20;;;5.20;;
44116;SDS011;29781;49.480;8.512;2023-12-20T07:10:26;6.28;;;5.22;;
44116;SDS011;29781;49.480;8.512;2023-12-20T07:12:51;6.40;;;4.70;;
44116;SDS011;29781;49.480;8.512;2023-12-20T07:15:20;7.43;;;5.00;;
44116;SDS011;29781;49.480;8.512;2023-12-20T07:17:46;9.95;;;4.47;;
44116;SDS011;29781;49.480;8.512;2023-12-20T07:20:11;9.40;;;5.45;;
44116;SDS011;29781;49.480;8.512;2023-12-20T07:22:38;7.70;;;5.30;;
44116;SDS011;29781;49.480;8.512;2023-12-20T07:25:04;6.97;;;4.40;;
44116;SDS011;29781;49.480;8.512;2023-12-20T07:30:52;6.22;;;4.22;;
44116;SDS011;29781;49.480;8.512;2023-12-20T08:54:29;5.45;;;2.55;;
44116;SDS011;29781;49.480;8.512;2023-12-20T08:56:55;5.63;;;3.30;;
44116;SDS011;29781;49.480;8.512;2023-12-20T08:59:20;5.78;;;3.25;;
44116;SDS011;29781;49.480;8.512;2023-12-20T09:01:46;7.88;;;2.95;;
44116;SDS011;29781;49.480;8.512;2023-12-20T09:04:13;5.88;;;2.75;;
44116;SDS011;29781;49.480;8.512;2023-12-20T09:06:38;5.13;;;2.08;;
44116;SDS011;29781;49.480;8.512;2023-12-20T09:09:04;5.60;;;2.60;;
44116;SDS011;29781;49.480;8.512;2023-12-20T09:11:29;4.75;;;2.25;;
44116;SDS011;29781;49.480;8.512;2023-12-20T09:13:55;6.72;;;2.28;;
44116;SDS011;29781;49.480;8.512;2023-12-20T09:16:20;6.07;;;2.47;;
44116;SDS011;29781;49.480;8.512;2023-12-20T09:18:46;7.35;;;2.50;;
44116;SDS011;29781;49.480;8.512;2023-12-20T09:21:11;9.50;;;2.70;;
44116;SDS011;29781;49.480;8.512;2023-12-20T09:23:37;5.10;;;2.72;;
44116;SDS011;29781;49.480;8.512;2023-12-20T09:26:03;6.90;;;3.00;;
44116;SDS011;29781;49.480;8.512;2023-12-20T09:28:29;10.40;;;2.30;;
44116;SDS011;29781;49.480;8.512;2023-12-20T09:30:54;4.03;;;1.88;;
44116;SDS011;29781;49.480;8.512;2023-12-20T09:33:20;7.63;;;2.22;;
44116;SDS011;29781;49.480;8.512;2023-12-20T09:35:45;5.25;;;2.13;;
44116;SDS011;29781;49.480;8.512;2023-12-20T09:38:11;9.85;;;3.65;;
44116;SDS011;29781;49.480;8.512;2023-12-20T09:40:37;6.75;;;2.40;;
44116;SDS011;29781;49.480;8.512;2023-12-20T09:43:15;7.20;;;1.70;;
44116;SDS011;29781;49.480;8.512;2023-12-20T09:45:45;6.10;;;2.50;;
44116;SDS011;29781;49.480;8.512;2023-12-20T09:48:13;5.85;;;2.30;;
44116;SDS011;29781;49.480;8.512;2023-12-20T09:50:39;7.65;;;2.47;;
44116;SDS011;29781;49.480;8.512;2023-12-20T09:53:08;5.82;;;2.78;;
44116;SDS011;29781;49.480;8.512;2023-12-20T09:55:35;7.25;;;2.58;;
44116;SDS011;29781;49.480;8.512;2023-12-20T09:58:01;5.13;;;2.17;;
44116;SDS011;29781;49.480;8.512;2023-12-20T10:00:27;8.82;;;2.28;;
44116;SDS011;29781;49.480;8.512;2023-12-20T10:02:56;4.93;;;2.05;;
44116;SDS011;29781;49.480;8.512;2023-12-20T10:05:27;8.02;;;2.08;;
44116;SDS011;29781;49.480;8.512;2023-12-20T10:07:56;9.05;;;2.80;;
44116;SDS011;29781;49.480;8.512;2023-12-20T10:10:22;7.93;;;1.98;;
44116;SDS011;29781;49.480;8.512;2023-12-20T10:13:01;7.72;;;1.88;;
44116;SDS011;29781;49.480;8.512;2023-12-20T10:15:27;12.48;;;2.00;;
44116;SDS011;29781;49.480;8.512;2023-12-20T10:17:52;6.78;;;2.13;;
44116;SDS011;29781;49.480;8.512;2023-12-20T10:20:19;7.57;;;2.65;;
44116;SDS011;29781;49.480;8.512;2023-12-20T10:22:45;4.93;;;1.75;;
44116;SDS011;29781;49.480;8.512;2023-12-20T10:25:11;8.85;;;2.30;;
44116;SDS011;29781;49.480;8.512;2023-12-20T10:27:37;12.40;;;1.90;;
44116;SDS011;29781;49.480;8.512;2023-12-20T10:30:02;5.43;;;2.00;;
44116;SDS011;29781;49.480;8.512;2023-12-20T10:32:29;5.68;;;2.10;;
44116;SDS011;29781;49.480;8.512;2023-12-20T10:34:55;9.55;;;3.42;;
44116;SDS011;29781;49.480;8.512;2023-12-20T10:37:21;8.82;;;2.40;;
44116;SDS011;29781;49.480;8.512;2023-12-20T10:39:50;6.20;;;3.00;;
44116;SDS011;29781;49.480;8.512;2023-12-20T10:42:21;7.75;;;2.92;;
44116;SDS011;29781;49.480;8.512;2023-12-20T10:44:47;13.80;;;2.13;;
44116;SDS011;29781;49.480;8.512;2023-12-20T10:47:14;8.73;;;2.53;;
44116;SDS011;29781;49.480;8.512;2023-12-20T10:49:40;10.48;;;2.08;;
44116;SDS011;29781;49.480;8.512;2023-12-20T10:52:06;5.10;;;2.47;;
44116;SDS011;29781;49.480;8.512;2023-12-20T10:54:34;12.48;;;4.93;;
44116;SDS011;29781;49.480;8.512;2023-12-20T10:56:59;16.15;;;2.60;;
44116;SDS011;29781;49.480;8.512;2023-12-20T10:59:29;8.38;;;4.78;;
44116;SDS011;29781;49.480;8.512;2023-12-20T11:01:57;10.27;;;4.20;;
44116;SDS011;29781;49.480;8.512;2023-12-20T11:04:37;6.03;;;2.42;;
44116;SDS011;29781;49.480;8.512;2023-12-20T11:07:17;3.38;;;1.88;;
44116;SDS011;29781;49.480;8.512;2023-12-20T11:10:10;10.70;;;6.90;;
44116;SDS011;29781;49.480;8.512;2023-12-20T11:13:06;7.20;;;3.08;;
44116;SDS011;29781;49.480;8.512;2023-12-20T11:15:47;8.93;;;2.47;;
44116;SDS011;29781;49.480;8.512;2023-12-20T11:18:13;11.23;;;4.10;;
44116;SDS011;29781;49.480;8.512;2023-12-20T11:20:40;8.00;;;4.30;;
44116;SDS011;29781;49.480;8.512;2023-12-20T11:23:06;14.05;;;7.65;;
44116;SDS011;29781;49.480;8.512;2023-12-20T11:25:46;7.57;;;3.53;;
44116;SDS011;29781;49.480;8.512;2023-12-20T11:28:22;8.68;;;4.50;;
44116;SDS011;29781;49.480;8.512;2023-12-20T11:30:50;7.63;;;3.83;;
44116;SDS011;29781;49.480;8.512;2023-12-20T11:33:16;6.10;;;2.85;;
44116;SDS011;29781;49.480;8.512;2023-12-20T11:35:50;6.75;;;2.60;;
44116;SDS011;29781;49.480;8.512;2023-12-20T11:38:16;5.57;;;2.42;;
44116;SDS011;29781;49.480;8.512;2023-12-20T11:40:42;8.05;;;2.40;;
44116;SDS011;29781;49.480;8.512;2023-12-20T11:43:08;11.23;;;3.03;;
44116;SDS011;29781;49.480;8.512;2023-12-20T11:45:34;9.05;;;3.63;;
44116;SDS011;29781;49.480;8.512;2023-12-20T11:48:00;6.88;;;2.63;;
44116;SDS011;29781;49.480;8.512;2023-12-20T11:50:27;2.97;;;1.60;;
44116;SDS011;29781;49.480;8.512;2023-12-20T11:52:54;7.28;;;4.07;;
44116;SDS011;29781;49.480;8.512;2023-12-20T11:55:21;11.90;;;3.47;;
44116;SDS011;29781;49.480;8.512;2023-12-20T11:57:47;12.07;;;3.83;;
44116;SDS011;29781;49.480;8.512;2023-12-20T12:00:13;7.68;;;3.75;;
44116;SDS011;29781;49.480;8.512;2023-12-20T12:02:39;9.82;;;4.03;;
44116;SDS011;29781;49.480;8.512;2023-12-20T12:05:06;7.50;;;3.03;;
44116;SDS011;29781;49.480;8.512;2023-12-20T12:07:32;6.35;;;3.13;;
44116;SDS011;29781;49.480;8.512;2023-12-20T12:09:58;6.65;;;3.17;;
44116;SDS011;29781;49.480;8.512;2023-12-20T12:12:24;15.27;;;9.02;;
44116;SDS011;29781;49.480;8.512;2023-12-20T12:14:52;9.30;;;4.60;;
44116;SDS011;29781;49.480;8.512;2023-12-20T12:17:18;10.80;;;5.75;;
44116;SDS011;29781;49.480;8.512;2023-12-20T12:19:43;8.77;;;5.22;;
44116;SDS011;29781;49.480;8.512;2023-12-20T12:22:13;11.63;;;6.82;;
44116;SDS011;29781;49.480;8.512;2023-12-20T12:24:40;9.63;;;4.90;;
44116;SDS011;29781;49.480;8.512;2023-12-20T12:27:07;11.20;;;3.58;;
44116;SDS011;29781;49.480;8.512;2023-12-20T12:29:33;7.63;;;3.25;;
44116;SDS011;29781;49.480;8.512;2023-12-20T12:31:59;8.60;;;3.13;;
44116;SDS011;29781;49.480;8.512;2023-12-20T12:34:28;8.18;;;2.50;;
44116;SDS011;29781;49.480;8.512;2023-12-20T12:36:53;7.72;;;2.75;;
44116;SDS011;29781;49.480;8.512;2023-12-20T12:39:19;10.45;;;2.95;;
44116;SDS011;29781;49.480;8.512;2023-12-20T12:41:45;10.27;;;3.20;;
44116;SDS011;29781;49.480;8.512;2023-12-20T12:44:10;8.43;;;2.83;;
44116;SDS011;29781;49.480;8.512;2023-12-20T12:46:36;6.95;;;2.70;;
44116;SDS011;29781;49.480;8.512;2023-12-20T12:49:01;11.55;;;3.05;;
44116;SDS011;29781;49.480;8.512;2023-12-20T12:51:27;9.45;;;2.83;;
44116;SDS011;29781;49.480;8.512;2023-12-20T12:53:53;8.43;;;2.38;;
44116;SDS011;29781;49.480;8.512;2023-12-20T12:56:18;4.32;;;2.17;;
44116;SDS011;29781;49.480;8.512;2023-12-20T12:58:44;5.13;;;2.30;;
44116;SDS011;29781;49.480;8.512;2023-12-20T13:01:10;5.90;;;2.15;;
44116;SDS011;29781;49.480;8.512;2023-12-20T13:03:35;6.05;;;1.90;;
44116;SDS011;29781;49.480;8.512;2023-12-20T13:06:01;9.38;;;1.98;;
44116;SDS011;29781;49.480;8.512;2023-12-20T13:08:28;7.03;;;2.22;;
44116;SDS011;29781;49.480;8.512;2023-12-20T13:10:54;5.45;;;1.98;;
44116;SDS011;29781;49.480;8.512;2023-12-20T13:13:20;11.90;;;2.75;;
44116;SDS011;29781;49.480;8.512;2023-12-20T13:15:46;9.00;;;2.78;;
44116;SDS011;29781;49.480;8.512;2023-12-20T13:18:16;6.85;;;3.00;;
44116;SDS011;29781;49.480;8.512;2023-12-20T13:20:43;6.90;;;3.00;;
44116;SDS011;29781;49.480;8.512;2023-12-20T13:23:11;7.13;;;2.83;;
44116;SDS011;29781;49.480;8.512;2023-12-20T13:25:36;8.10;;;2.72;;
44116;SDS011;29781;49.480;8.512;2023-12-20T13:28:02;11.93;;;3.28;;
44116;SDS011;29781;49.480;8.512;2023-12-20T13:30:28;7.95;;;2.60;;
44116;SDS011;29781;49.480;8.512;2023-12-20T13:32:54;6.53;;;2.10;;
44116;SDS011;29781;49.480;8.512;2023-12-20T13:35:20;9.68;;;2.83;;
44116;SDS011;29781;49.480;8.512;2023-12-20T13:37:45;9.00;;;2.63;;
44116;SDS011;29781;49.480;8.512;2023-12-20T13:40:11;8.45;;;2.45;;
44116;SDS011;29781;49.480;8.512;2023-12-20T13:42:37;7.32;;;2.45;;
44116;SDS011;29781;49.480;8.512;2023-12-20T13:45:03;5.68;;;3.03;;
44116;SDS011;29781;49.480;8.512;2023-12-20T13:47:29;7.40;;;2.45;;
44116;SDS011;29781;49.480;8.512;2023-12-20T13:49:55;5.72;;;2.42;;
44116;SDS011;29781;49.480;8.512;2023-12-20T13:52:21;6.65;;;2.50;;
44116;SDS011;29781;49.480;8.512;2023-12-20T13:54:46;9.68;;;3.00;;
44116;SDS011;29781;49.480;8.512;2023-12-20T13:57:12;10.23;;;2.70;;
44116;SDS011;29781;49.480;8.512;2023-12-20T13:59:38;4.10;;;2.20;;
44116;SDS011;29781;49.480;8.512;2023-12-20T14:02:03;4.57;;;1.75;;
44116;SDS011;29781;49.480;8.512;2023-12-20T14:04:29;4.55;;;1.70;;
44116;SDS011;29781;49.480;8.512;2023-12-20T14:06:56;7.13;;;1.83;;
44116;SDS011;29781;49.480;8.512;2023-12-20T14:09:23;9.40;;;2.95;;
44116;SDS011;29781;49.480;8.512;2023-12-20T14:11:48;5.85;;;2.17;;
44116;SDS011;29781;49.480;8.512;2023-12-20T14:14:14;10.25;;;2.35;;
44116;SDS011;29781;49.480;8.512;2023-12-20T14:16:39;5.20;;;2.25;;
44116;SDS011;29781;49.480;8.512;2023-12-20T14:19:06;7.88;;;2.78;;
44116;SDS011;29781;49.480;8.512;2023-12-20T14:21:33;7.55;;;2.05;;
44116;SDS011;29781;49.480;8.512;2023-12-20T14:24:02;6.05;;;2.38;;
44116;SDS011;29781;49.480;8.512;2023-12-20T14:26:29;4.72;;;1.88;;
44116;SDS011;29781;49.480;8.512;2023-12-20T14:28:54;11.13;;;2.17;;
44116;SDS011;29781;49.480;8.512;2023-12-20T14:31:20;5.47;;;2.00;;
44116;SDS011;29781;49.480;8.512;2023-12-20T14:33:48;7.28;;;2.15;;
44116;SDS011;29781;49.480;8.512;2023-12-20T14:36:15;6.63;;;2.33;;
44116;SDS011;29781;49.480;8.512;2023-12-20T14:38:42;6.80;;;2.22;;
44116;SDS011;29781;49.480;8.512;2023-12-20T14:41:12;6.53;;;2.38;;
44116;SDS011;29781;49.480;8.512;2023-12-20T14:43:38;8.75;;;2.63;;
44116;SDS011;29781;49.480;8.512;2023-12-20T14:46:03;7.70;;;2.40;;
44116;SDS011;29781;49.480;8.512;2023-12-20T14:48:30;6.03;;;2.72;;
44116;SDS011;29781;49.480;8.512;2023-12-20T14:50:57;5.35;;;2.17;;
44116;SDS011;29781;49.480;8.512;2023-12-20T14:53:24;5.13;;;2.15;;
44116;SDS011;29781;49.480;8.512;2023-12-20T14:55:50;6.60;;;2.30;;
44116;SDS011;29781;49.480;8.512;2023-12-20T14:58:16;9.85;;;2.42;;
44116;SDS011;29781;49.480;8.512;2023-12-20T15:00:41;4.00;;;1.80;;
44116;SDS011;29781;49.480;8.512;2023-12-20T15:03:08;11.38;;;3.05;;
44116;SDS011;29781;49.480;8.512;2023-12-20T15:05:34;8.77;;;2.38;;
44116;SDS011;29781;49.480;8.512;2023-12-20T15:08:01;9.23;;;2.22;;
44116;SDS011;29781;49.480;8.512;2023-12-20T15:10:26;4.47;;;2.15;;
44116;SDS011;29781;49.480;8.512;2023-12-20T15:12:52;7.18;;;2.40;;
44116;SDS011;29781;49.480;8.512;2023-12-20T15:15:17;6.57;;;2.35;;
44116;SDS011;29781;49.480;8.512;2023-12-20T15:17:43;8.63;;;2.20;;
44116;SDS011;29781;49.480;8.512;2023-12-20T15:20:10;9.35;;;2.28;;
44116;SDS011;29781;49.480;8.512;2023-12-20T15:22:36;6.57;;;2.55;;
44116;SDS011;29781;49.480;8.512;2023-12-20T15:25:02;7.40;;;2.28;;
44116;SDS011;29781;49.480;8.512;2023-12-20T15:27:31;8.85;;;2.03;;
44116;SDS011;29781;49.480;8.512;2023-12-20T15:29:57;5.63;;;2.47;;
44116;SDS011;29781;49.480;8.512;2023-12-20T15:32:22;10.68;;;4.20;;
44116;SDS011;29781;49.480;8.512;2023-12-20T15:34:48;10.90;;;4.40;;
44116;SDS011;29781;49.480;8.512;2023-12-20T15:37:14;19.60;;;6.95;;
44116;SDS011;29781;49.480;8.512;2023-12-20T15:39:40;9.43;;;3.50;;
44116;SDS011;29781;49.480;8.512;2023-12-20T15:42:06;8.98;;;3.45;;
44116;SDS011;29781;49.480;8.512;2023-12-20T15:44:32;13.93;;;6.78;;
44116;SDS011;29781;49.480;8.512;2023-12-20T15:46:57;15.00;;;5.13;;
44116;SDS011;29781;49.480;8.512;2023-12-20T15:49:23;9.20;;;3.63;;
44116;SDS011;29781;49.480;8.512;2023-12-20T15:51:48;13.27;;;6.18;;
44116;SDS011;29781;49.480;8.512;2023-12-20T15:54:14;9.25;;;3.78;;
44116;SDS011;29781;49.480;8.512;2023-12-20T15:56:39;6.78;;;2.85;;
44116;SDS011;29781;49.480;8.512;2023-12-20T15:59:06;7.70;;;2.72;;
44116;SDS011;29781;49.480;8.512;2023-12-20T16:01:32;8.18;;;3.10;;
44116;SDS011;29781;49.480;8.512;2023-12-20T16:03:58;9.10;;;2.58;;